createdAt,value
2024-04-23T00:08:39.129Z,9.40
2024-04-23T00:18:23.125Z,10.03
2024-04-23T00:28:09.314Z,10.30
2024-04-23T00:37:52.518Z,11.30
2024-04-23T00:47:35.423Z,11.07
2024-04-23T00:57:18.822Z,11.30
2024-04-23T01:07:02.585Z,11.27
2024-04-23T01:16:48.168Z,9.87
2024-04-23T01:26:34.975Z,9.87
2024-04-23T01:36:18.535Z,9.57
2024-04-23T01:46:01.451Z,10.70
2024-04-23T01:55:44.057Z,10.90
2024-04-23T02:05:29.225Z,10.83
2024-04-23T02:15:12.002Z,11.67
2024-04-23T02:24:54.328Z,14.67
2024-04-23T02:34:39.143Z,14.90
2024-04-23T02:44:27.082Z,16.43
2024-04-23T02:54:09.273Z,15.70
2024-04-23T03:03:53.369Z,12.40
2024-04-23T03:13:38.007Z,12.27
2024-04-23T03:23:24.256Z,13.30
2024-04-23T03:33:07.443Z,13.57
2024-04-23T03:42:51.288Z,16.63
2024-04-23T03:52:36.742Z,19.07
2024-04-23T04:02:41.357Z,25.07
2024-04-23T04:12:26.370Z,25.00
2024-04-23T04:22:08.994Z,24.80
2024-04-23T04:31:51.484Z,24.17
2024-04-23T04:41:34.488Z,23.73
2024-04-23T04:51:16.885Z,23.30
2024-04-23T05:01:07.685Z,23.37
2024-04-23T05:10:50.041Z,23.30
2024-04-23T05:20:36.487Z,24.70
2024-04-23T05:30:38.712Z,21.10
2024-04-23T05:40:21.545Z,19.40
2024-04-23T05:50:42.574Z,16.47
2024-04-23T06:00:45.462Z,16.37
2024-04-23T06:10:29.314Z,13.40
2024-04-23T06:20:12.400Z,11.50
2024-04-23T06:29:56.145Z,11.13
2024-04-23T06:39:47.858Z,5.73
2024-04-23T06:49:31.531Z,6.23
2024-04-23T06:59:13.785Z,4.77
2024-04-23T07:08:58.156Z,5.33
2024-04-23T07:18:53.659Z,5.87
2024-04-23T07:28:43.497Z,6.33
2024-04-23T07:38:28.011Z,4.63
2024-04-23T07:48:10.614Z,4.57
2024-04-23T07:57:53.543Z,3.50
2024-04-23T08:07:36.529Z,4.43
2024-04-23T08:17:20.131Z,5.60
2024-04-23T08:27:04.204Z,4.13
2024-04-23T08:36:47.304Z,3.07
2024-04-23T08:46:30.694Z,5.23
2024-04-23T08:56:17.642Z,4.47
2024-04-23T09:06:01.831Z,3.30
2024-04-23T09:15:44.652Z,4.20
2024-04-23T09:25:37.711Z,3.00
2024-04-23T09:35:25.512Z,2.93
2024-04-23T09:45:09.448Z,3.00
2024-04-23T09:54:51.715Z,7.20
2024-04-23T10:04:39.901Z,6.23
2024-04-23T10:14:26.520Z,4.17
2024-04-23T10:24:11.455Z,7.77
2024-04-23T10:33:56.914Z,3.70
2024-04-23T10:43:45.732Z,2.60
2024-04-23T10:53:32.426Z,3.93
2024-04-23T11:03:19.049Z,5.43
2024-04-23T11:13:05.380Z,4.10
2024-04-23T11:23:00.807Z,5.10
2024-04-23T11:32:43.746Z,4.70
2024-04-23T11:42:31.063Z,3.50
2024-04-23T11:52:15.961Z,3.27
2024-04-23T12:01:59.535Z,4.27
2024-04-23T12:11:47.812Z,5.60
2024-04-23T12:21:30.247Z,5.20
2024-04-23T12:31:13.791Z,4.43
2024-04-23T12:40:57.475Z,5.80
2024-04-23T12:50:41.047Z,3.37
2024-04-23T13:00:28.291Z,3.30
2024-04-23T13:10:12.259Z,2.90
2024-04-23T13:42:47.399Z,3.77
2024-04-23T20:54:10.233Z,9.17
2024-04-23T21:03:56.009Z,8.47
2024-04-23T21:13:43.258Z,7.73
2024-04-23T21:23:28.807Z,7.03
2024-04-23T21:33:16.661Z,8.50
